Time;durP1;ratioP1;P1;durP2;ratioP2;P2;SDS_P1;SDS_P2;PMS_P1;PMS_P2;Temp;Humidity;BMP_temperature;BMP_pressure;BME280_temperature;BME280_humidity;BME280_pressure;Samples;Min_cycle;Max_cycle;Signal;HPM_P1;HPM_P2
2023/07/05 00:00:51;;;;;;;6.50;4.68;;;18.30;99.90;;;;;;5085751;28;20095;-69
2023/07/05 00:03:16;;;;;;;7.30;4.47;;;18.40;99.90;;;;;;5087279;28;20024;-68
2023/07/05 00:05:42;;;;;;;4.72;4.32;;;18.40;99.90;;;;;;5082002;28;20103;-69
2023/07/05 00:08:08;;;;;;;6.63;4.72;;;18.40;99.90;;;;;;5075096;28;20060;-68
2023/07/05 00:10:33;;;;;;;6.82;3.83;;;18.40;99.90;;;;;;5079197;28;20541;-68
2023/07/05 00:12:59;;;;;;;6.57;4.28;;;18.50;99.90;;;;;;5079869;28;20020;-67
2023/07/05 00:15:26;;;;;;;4.90;3.80;;;18.30;99.90;;;;;;5084630;28;20029;-67
2023/07/05 00:17:52;;;;;;;7.90;4.10;;;18.40;99.90;;;;;;5078448;28;20107;-67
2023/07/05 00:20:18;;;;;;;6.80;3.85;;;18.30;99.90;;;;;;5076476;28;20488;-67
2023/07/05 00:22:43;;;;;;;8.48;4.28;;;18.20;99.90;;;;;;5083558;28;20043;-69
2023/07/05 00:25:09;;;;;;;6.45;5.00;;;18.10;99.90;;;;;;5087461;28;20035;-68
2023/07/05 00:27:35;;;;;;;8.05;5.05;;;18.10;99.90;;;;;;5080567;28;20024;-68
2023/07/05 00:30:00;;;;;;;8.15;4.78;;;18.10;99.90;;;;;;5077898;28;20084;-68
2023/07/05 00:32:26;;;;;;;5.30;4.28;;;18.10;99.90;;;;;;5080748;28;20475;-68
2023/07/05 00:34:52;;;;;;;5.70;4.40;;;18.00;99.90;;;;;;5080806;28;20032;-67
2023/07/05 00:37:17;;;;;;;6.35;4.25;;;18.00;99.90;;;;;;5080724;28;20028;-69
2023/07/05 00:39:43;;;;;;;5.78;4.28;;;17.90;99.90;;;;;;5086651;28;20153;-68
2023/07/05 00:42:09;;;;;;;6.40;3.88;;;17.80;99.90;;;;;;5087055;28;20023;-68
2023/07/05 00:44:35;;;;;;;4.82;4.25;;;17.80;99.90;;;;;;5083204;28;20511;-69
2023/07/05 00:47:21;;;;;;;6.80;3.85;;;18.00;99.90;;;;;;5083146;28;20032;-68
2023/07/05 00:49:47;;;;;;;6.85;4.22;;;18.00;99.90;;;;;;5079701;28;20371;-68
2023/07/05 00:52:16;;;;;;;6.90;4.20;;;18.00;99.90;;;;;;5080486;28;20289;-68
2023/07/05 00:54:49;;;;;;;7.65;4.50;;;18.10;99.90;;;;;;5079837;28;20026;-67
2023/07/05 00:57:21;;;;;;;5.65;4.63;;;18.10;99.90;;;;;;5079237;28;20642;-68
2023/07/05 00:59:55;;;;;;;5.82;3.75;;;18.00;99.90;;;;;;5080516;28;20068;-69
2023/07/05 01:02:22;;;;;;;4.93;4.22;;;17.90;99.90;;;;;;5080629;28;20024;-69
2023/07/05 01:04:48;;;;;;;8.90;4.35;;;18.00;99.90;;;;;;5079471;28;20033;-68
2023/07/05 01:07:15;;;;;;;5.50;4.45;;;18.00;99.90;;;;;;5060124;28;20025;-69
2023/07/05 01:09:42;;;;;;;5.25;3.97;;;18.00;99.90;;;;;;5079046;28;20024;-69
2023/07/05 01:12:20;;;;;;;5.05;3.58;;;18.10;99.90;;;;;;5093050;28;20838;-68
2023/07/05 01:14:56;;;;;;;5.13;3.67;;;18.20;99.90;;;;;;5094379;28;20030;-67
2023/07/05 01:17:33;;;;;;;4.35;3.03;;;18.10;99.90;;;;;;5098046;28;20026;-69
2023/07/05 01:20:10;;;;;;;6.93;3.80;;;18.30;99.90;;;;;;5098469;28;20043;-69
2023/07/05 01:22:58;;;;;;;3.20;2.90;;;18.40;99.90;;;;;;5094003;28;20024;-68
2023/07/05 01:25:57;;;;;;;3.70;3.03;;;18.30;99.90;;;;;;5098016;28;20057;-68
2023/07/05 01:28:55;;;;;;;5.00;2.85;;;18.40;99.90;;;;;;5104041;28;20038;-68
2023/07/05 01:31:42;;;;;;;4.20;3.00;;;18.40;99.90;;;;;;5093652;28;20472;-69
2023/07/05 01:34:17;;;;;;;3.42;2.22;;;18.30;99.90;;;;;;5101784;28;20043;-69
2023/07/05 01:36:42;;;;;;;3.63;2.03;;;18.30;99.90;;;;;;5099449;28;20452;-68
2023/07/05 01:39:08;;;;;;;2.42;2.33;;;18.40;99.90;;;;;;5096982;28;20039;-68
2023/07/05 01:41:34;;;;;;;2.65;2.45;;;18.40;99.90;;;;;;5098930;27;20028;-68
2023/07/05 01:43:59;;;;;;;3.45;2.63;;;18.40;99.90;;;;;;5101626;28;20487;-68
2023/07/05 01:46:41;;;;;;;4.05;2.70;;;18.40;99.90;;;;;;5091624;28;20024;-68
2023/07/05 01:49:07;;;;;;;3.00;1.88;;;18.50;99.90;;;;;;5097874;28;20027;-68
2023/07/05 01:51:41;;;;;;;3.55;2.15;;;18.60;99.90;;;;;;5098939;28;20020;-68
2023/07/05 01:54:16;;;;;;;2.55;2.08;;;18.60;99.90;;;;;;5097526;28;20436;-67
2023/07/05 01:56:53;;;;;;;2.72;2.15;;;18.60;99.90;;;;;;5102473;28;20050;-68
2023/07/05 01:59:23;;;;;;;2.13;1.75;;;18.60;99.90;;;;;;5091536;28;20097;-68
2023/07/05 02:01:53;;;;;;;4.13;1.90;;;18.50;99.90;;;;;;5099196;28;20032;-68
2023/07/05 02:04:22;;;;;;;2.15;1.90;;;18.50;99.90;;;;;;5094823;28;20101;-68
2023/07/05 02:06:47;;;;;;;5.75;2.33;;;18.40;99.90;;;;;;5097071;28;20055;-68
2023/07/05 02:09:13;;;;;;;2.92;1.85;;;18.40;99.90;;;;;;5096441;28;20097;-68
2023/07/05 02:11:39;;;;;;;3.70;2.17;;;18.20;99.90;;;;;;5099904;28;20024;-68
2023/07/05 02:14:04;;;;;;;2.20;2.00;;;18.20;99.90;;;;;;5097748;28;20391;-68
2023/07/05 02:16:30;;;;;;;6.20;2.15;;;18.20;99.90;;;;;;5104089;28;20023;-69
2023/07/05 02:18:56;;;;;;;3.90;2.10;;;18.20;99.90;;;;;;5098801;28;20046;-69
2023/07/05 02:21:22;;;;;;;3.05;1.83;;;18.20;99.90;;;;;;5090243;28;20035;-69
2023/07/05 02:23:47;;;;;;;3.28;2.20;;;18.20;99.90;;;;;;5099312;28;20028;-70
2023/07/05 02:26:13;;;;;;;3.03;2.15;;;18.10;99.90;;;;;;5102578;28;20028;-69
2023/07/05 02:28:39;;;;;;;3.00;2.20;;;18.00;99.90;;;;;;5090639;28;20028;-70
2023/07/05 02:31:06;;;;;;;2.45;2.17;;;17.90;99.90;;;;;;5099433;28;20471;-69
2023/07/05 02:33:34;;;;;;;5.10;2.25;;;17.80;99.90;;;;;;5100394;28;20620;-69
2023/07/05 02:36:09;;;;;;;4.45;2.42;;;17.80;99.90;;;;;;5089624;28;20051;-68
2023/07/05 02:38:35;;;;;;;2.70;2.50;;;17.80;99.90;;;;;;5096501;28;20143;-70
2023/07/05 02:41:01;;;;;;;4.88;3.28;;;17.90;99.90;;;;;;5101143;28;20031;-68
2023/07/05 02:43:27;;;;;;;4.82;3.17;;;17.80;99.90;;;;;;5105097;28;20031;-68
2023/07/05 02:45:52;;;;;;;4.07;3.00;;;17.70;99.90;;;;;;5091775;28;20024;-69
2023/07/05 02:48:18;;;;;;;3.63;3.28;;;17.70;99.90;;;;;;5095827;28;20107;-69
2023/07/05 02:50:44;;;;;;;5.38;3.25;;;17.60;99.90;;;;;;5091842;28;20024;-70
2023/07/05 02:53:09;;;;;;;5.78;3.58;;;17.40;99.90;;;;;;5101837;28;20020;-70
2023/07/05 02:55:35;;;;;;;5.28;3.90;;;17.40;99.90;;;;;;5090447;28;20443;-70
2023/07/05 02:58:00;;;;;;;4.47;3.47;;;17.40;99.90;;;;;;5100518;28;20357;-69
2023/07/05 03:00:29;;;;;;;4.70;3.50;;;17.30;99.90;;;;;;5093138;28;20418;-70
2023/07/05 03:02:55;;;;;;;4.43;3.40;;;17.30;99.90;;;;;;5099476;28;20538;-70
2023/07/05 03:05:21;;;;;;;5.38;3.90;;;17.40;99.90;;;;;;5081536;28;20066;-70
2023/07/05 03:07:47;;;;;;;6.57;3.20;;;17.30;99.90;;;;;;5087361;28;20025;-69
2023/07/05 03:10:13;;;;;;;4.80;3.80;;;17.30;99.90;;;;;;5078355;28;20031;-69
2023/07/05 03:12:40;;;;;;;4.93;3.88;;;17.00;99.90;;;;;;5083453;28;20028;-69
2023/07/05 03:15:06;;;;;;;6.07;3.80;;;16.90;99.90;;;;;;5083694;28;20104;-69
2023/07/05 03:17:33;;;;;;;4.70;3.80;;;17.00;99.90;;;;;;5079488;28;20485;-69
2023/07/05 03:19:59;;;;;;;4.20;3.45;;;17.00;99.90;;;;;;5078279;28;20544;-69
2023/07/05 03:22:26;;;;;;;6.97;4.00;;;17.00;99.90;;;;;;5080594;28;20020;-69
2023/07/05 03:24:52;;;;;;;6.43;3.88;;;17.00;99.90;;;;;;5080579;28;20020;-69
2023/07/05 03:27:19;;;;;;;6.88;4.10;;;17.00;99.90;;;;;;5079257;28;20024;-69
2023/07/05 03:29:44;;;;;;;5.15;3.50;;;17.20;99.90;;;;;;5079289;28;20503;-70
2023/07/05 03:32:10;;;;;;;5.78;3.70;;;17.10;99.90;;;;;;5078658;28;20040;-69
2023/07/05 03:34:36;;;;;;;5.43;3.50;;;17.20;99.90;;;;;;5081813;28;20032;-69
2023/07/05 03:37:02;;;;;;;5.22;3.97;;;17.10;99.90;;;;;;5079378;28;21335;-70
2023/07/05 03:39:29;;;;;;;6.07;3.80;;;16.90;99.90;;;;;;5080874;28;20070;-69
2023/07/05 03:41:54;;;;;;;7.68;4.05;;;17.00;99.90;;;;;;5079301;28;20081;-69
2023/07/05 03:44:22;;;;;;;5.32;3.72;;;16.90;99.90;;;;;;5088289;28;20024;-69
2023/07/05 03:46:49;;;;;;;7.85;4.35;;;16.90;99.90;;;;;;5080188;28;20027;-69
2023/07/05 03:49:15;;;;;;;5.70;3.90;;;17.00;99.90;;;;;;5080166;28;20039;-69
2023/07/05 03:51:41;;;;;;;7.63;4.10;;;16.90;99.90;;;;;;5085930;28;20602;-69
2023/07/05 03:54:07;;;;;;;7.10;4.38;;;16.90;99.90;;;;;;5078985;28;20107;-69
2023/07/05 03:56:34;;;;;;;7.90;3.75;;;16.90;99.90;;;;;;5085835;28;20028;-69
2023/07/05 03:59:00;;;;;;;7.60;4.57;;;17.00;99.90;;;;;;5079574;28;20068;-69
2023/07/05 04:01:27;;;;;;;6.68;4.30;;;16.90;99.90;;;;;;5079380;28;20598;-69
2023/07/05 04:03:58;;;;;;;6.68;3.97;;;16.80;99.90;;;;;;5081561;28;20052;-69
2023/07/05 04:06:26;;;;;;;6.00;4.32;;;16.80;99.90;;;;;;5080089;28;20518;-69
2023/07/05 04:08:52;;;;;;;8.60;4.13;;;16.90;99.90;;;;;;5072821;28;20111;-70
2023/07/05 04:11:18;;;;;;;6.55;4.32;;;16.80;99.90;;;;;;5079984;28;20103;-69
2023/07/05 04:13:46;;;;;;;7.60;4.40;;;16.80;99.90;;;;;;5085152;28;20020;-69
2023/07/05 04:16:13;;;;;;;7.90;4.60;;;16.60;99.90;;;;;;5083159;28;20107;-69
2023/07/05 04:18:40;;;;;;;10.98;4.82;;;16.50;99.90;;;;;;5080495;28;20024;-70
2023/07/05 04:21:06;;;;;;;7.93;4.13;;;16.50;99.90;;;;;;5078533;28;20020;-69
2023/07/05 04:23:33;;;;;;;5.28;3.92;;;16.50;99.90;;;;;;5088586;28;20028;-69
2023/07/05 04:26:07;;;;;;;8.88;4.95;;;16.60;99.90;;;;;;5081906;28;20009;-69
2023/07/05 04:28:34;;;;;;;6.72;4.40;;;16.60;99.90;;;;;;5080854;28;20401;-69
2023/07/05 04:31:00;;;;;;;11.70;4.88;;;16.40;99.90;;;;;;5081096;28;20029;-69
2023/07/05 04:33:26;;;;;;;7.45;4.43;;;16.50;99.90;;;;;;5082020;28;20074;-68
2023/07/05 04:35:57;;;;;;;15.45;5.40;;;16.50;99.90;;;;;;5080530;28;20032;-69
2023/07/05 04:38:23;;;;;;;6.53;4.53;;;16.50;99.90;;;;;;5077578;28;20040;-69
2023/07/05 04:40:49;;;;;;;7.47;5.18;;;16.60;99.90;;;;;;5080204;28;20081;-69
2023/07/05 04:43:15;;;;;;;5.57;4.30;;;16.60;99.90;;;;;;5080496;28;20036;-69
2023/07/05 04:45:40;;;;;;;9.35;4.65;;;16.70;99.90;;;;;;5082354;28;20085;-68
2023/07/05 04:48:06;;;;;;;6.40;4.18;;;16.60;99.90;;;;;;5082775;28;20028;-69
2023/07/05 04:50:32;;;;;;;10.10;4.05;;;16.50;99.90;;;;;;5081658;28;20028;-69
2023/07/05 04:52:58;;;;;;;9.18;4.32;;;16.60;99.90;;;;;;5080176;28;20017;-70
2023/07/05 04:55:24;;;;;;;9.02;4.35;;;16.50;99.90;;;;;;5083251;28;20404;-69
2023/07/05 04:57:49;;;;;;;7.70;4.55;;;16.60;99.90;;;;;;5081570;28;20372;-70
2023/07/05 05:00:16;;;;;;;10.90;4.70;;;16.70;99.90;;;;;;5078571;28;20025;-69
2023/07/05 05:02:42;;;;;;;7.85;4.78;;;16.60;99.90;;;;;;5085258;28;20016;-69
2023/07/05 05:05:08;;;;;;;7.28;4.13;;;16.60;99.90;;;;;;5075831;28;20028;-69
2023/07/05 05:07:34;;;;;;;8.77;4.35;;;16.70;99.90;;;;;;5081913;28;20032;-69
2023/07/05 05:10:00;;;;;;;7.80;4.18;;;16.70;99.90;;;;;;5082147;28;20074;-69
2023/07/05 05:12:26;;;;;;;6.90;4.60;;;16.70;99.90;;;;;;5078483;28;20107;-70
2023/07/05 05:14:52;;;;;;;10.57;4.25;;;16.70;99.90;;;;;;5074139;28;20099;-69
2023/07/05 05:17:18;;;;;;;7.53;4.32;;;16.60;99.90;;;;;;5081156;28;20054;-69
2023/07/05 05:19:43;;;;;;;9.23;4.30;;;16.60;99.90;;;;;;5082819;28;20131;-69
2023/07/05 05:22:10;;;;;;;7.07;4.28;;;16.60;99.90;;;;;;5083994;28;20028;-69
2023/07/05 05:24:36;;;;;;;6.55;3.90;;;16.60;99.90;;;;;;5078034;28;20051;-69
2023/07/05 05:27:01;;;;;;;5.78;4.28;;;16.70;99.90;;;;;;5084297;28;20399;-69
2023/07/05 05:29:28;;;;;;;6.35;4.07;;;16.80;99.90;;;;;;5078696;28;20424;-70
2023/07/05 05:31:53;;;;;;;8.18;4.03;;;16.90;99.90;;;;;;5076368;28;20492;-69
2023/07/05 05:34:19;;;;;;;8.43;4.15;;;16.70;99.90;;;;;;5081307;28;20029;-69
2023/07/05 05:36:45;;;;;;;10.38;4.03;;;16.70;99.90;;;;;;5085867;28;20027;-70
2023/07/05 05:39:10;;;;;;;8.32;3.42;;;16.70;99.90;;;;;;5078352;28;20037;-69
2023/07/05 05:41:36;;;;;;;7.35;3.70;;;16.70;99.90;;;;;;5077676;28;20521;-68
2023/07/05 05:44:02;;;;;;;5.93;3.47;;;16.60;99.90;;;;;;5082915;28;20060;-68
2023/07/05 05:46:27;;;;;;;6.38;3.40;;;16.50;99.90;;;;;;5080036;28;20032;-67
2023/07/05 05:48:53;;;;;;;7.97;3.97;;;16.50;99.90;;;;;;5080512;28;20079;-68
2023/07/05 05:51:18;;;;;;;8.30;4.03;;;16.70;99.90;;;;;;5075814;28;20171;-68
2023/07/05 05:53:44;;;;;;;5.97;3.50;;;16.70;99.90;;;;;;5083323;28;20400;-68
2023/07/05 05:56:10;;;;;;;7.97;3.42;;;16.80;99.90;;;;;;5083788;28;20041;-68
2023/07/05 05:58:35;;;;;;;5.55;3.10;;;16.80;99.90;;;;;;5078081;28;20048;-69
2023/07/05 06:01:05;;;;;;;7.53;3.35;;;16.70;99.90;;;;;;5073708;28;20040;-68
2023/07/05 06:03:30;;;;;;;6.53;3.28;;;16.80;99.90;;;;;;5080163;28;20028;-68
2023/07/05 06:05:56;;;;;;;7.32;3.42;;;16.90;99.90;;;;;;5085277;28;20023;-70
2023/07/05 06:08:22;;;;;;;6.35;2.97;;;16.90;99.90;;;;;;5077085;28;20104;-69
2023/07/05 06:10:59;;;;;;;6.13;3.30;;;16.90;99.90;;;;;;5080454;28;20023;-70
2023/07/05 06:13:27;;;;;;;8.43;3.33;;;16.80;99.90;;;;;;5090374;28;20039;-69
2023/07/05 06:15:57;;;;;;;7.90;3.72;;;16.80;99.90;;;;;;5082699;28;20385;-72
2023/07/05 06:18:23;;;;;;;6.72;2.63;;;16.80;99.90;;;;;;5085390;28;20024;-69
2023/07/05 06:20:49;;;;;;;9.88;2.97;;;16.90;99.90;;;;;;5082906;28;20083;-69
2023/07/05 06:23:15;;;;;;;5.75;2.70;;;16.80;99.90;;;;;;5083633;28;20154;-69
2023/07/05 06:25:44;;;;;;;8.85;3.03;;;16.70;99.90;;;;;;5084313;28;20035;-69
2023/07/05 06:28:09;;;;;;;4.68;2.60;;;16.80;99.90;;;;;;5079853;28;20166;-69
2023/07/05 06:30:35;;;;;;;5.32;2.80;;;16.80;99.90;;;;;;5078919;28;20095;-69
2023/07/05 06:33:01;;;;;;;7.18;3.65;;;16.70;99.90;;;;;;5083040;28;20048;-69
2023/07/05 06:35:27;;;;;;;8.98;3.10;;;16.80;99.90;;;;;;5083858;28;20024;-69
2023/07/05 06:37:52;;;;;;;5.97;2.80;;;16.90;99.90;;;;;;5080949;28;20020;-68
2023/07/05 06:40:18;;;;;;;5.63;2.60;;;16.90;99.90;;;;;;5083736;28;20048;-68
2023/07/05 06:42:44;;;;;;;8.68;3.00;;;17.00;99.90;;;;;;5083562;28;20903;-72
2023/07/05 06:45:10;;;;;;;5.22;2.55;;;17.10;99.90;;;;;;5086706;28;20110;-68
2023/07/05 06:47:37;;;;;;;4.38;2.67;;;17.10;99.90;;;;;;5086860;28;20186;-70
2023/07/05 06:50:04;;;;;;;5.80;2.70;;;17.10;99.90;;;;;;5080360;28;20542;-69
2023/07/05 06:52:30;;;;;;;4.43;2.67;;;17.20;99.90;;;;;;5081029;28;20485;-68
2023/07/05 06:54:55;;;;;;;7.57;2.88;;;17.40;99.90;;;;;;5082284;28;20020;-70
2023/07/05 06:57:21;;;;;;;4.78;2.40;;;17.50;99.90;;;;;;5084657;28;20063;-69
2023/07/05 06:59:47;;;;;;;9.30;2.97;;;17.40;99.90;;;;;;5079591;28;20044;-68
2023/07/05 07:02:13;;;;;;;8.60;3.20;;;17.50;99.90;;;;;;5083286;28;20032;-68
2023/07/05 07:04:38;;;;;;;5.45;2.78;;;17.70;99.90;;;;;;5080735;28;20055;-68
2023/07/05 07:07:05;;;;;;;6.65;2.13;;;17.80;99.90;;;;;;5080189;28;20050;-68
2023/07/05 07:09:32;;;;;;;7.05;3.03;;;17.70;99.90;;;;;;5076705;28;20102;-67
2023/07/05 07:11:58;;;;;;;3.88;2.20;;;17.60;99.90;;;;;;5082845;28;20048;-67
2023/07/05 07:14:25;;;;;;;7.88;3.25;;;17.50;99.90;;;;;;5079412;28;20109;-66
2023/07/05 07:16:51;;;;;;;5.10;3.30;;;17.50;99.90;;;;;;5080245;28;20572;-67
2023/07/05 07:19:20;;;;;;;7.18;2.17;;;17.50;99.90;;;;;;5084116;28;20028;-67
2023/07/05 07:21:46;;;;;;;5.05;2.40;;;17.40;99.90;;;;;;5080771;28;20020;-67
2023/07/05 07:24:12;;;;;;;6.50;2.28;;;17.50;99.90;;;;;;5083306;28;20016;-67
2023/07/05 07:26:38;;;;;;;4.88;2.38;;;17.70;99.90;;;;;;5082599;28;20149;-67
2023/07/05 07:29:04;;;;;;;5.30;2.15;;;17.80;99.90;;;;;;5081950;28;20614;-67
2023/07/05 07:31:32;;;;;;;7.03;1.85;;;18.00;99.90;;;;;;5082451;28;20032;-67
2023/07/05 07:34:07;;;;;;;3.40;2.00;;;18.10;99.90;;;;;;5082996;28;20036;-67
2023/07/05 07:36:35;;;;;;;3.80;2.05;;;18.30;99.90;;;;;;5083674;28;20468;-67
2023/07/05 07:39:02;;;;;;;6.65;2.00;;;18.20;99.90;;;;;;5081495;28;20043;-67
2023/07/05 07:41:38;;;;;;;15.25;2.70;;;18.30;99.90;;;;;;5081504;28;20495;-68
2023/07/05 07:44:06;;;;;;;5.40;2.35;;;18.50;99.90;;;;;;5078518;28;20086;-67
2023/07/05 07:46:32;;;;;;;4.15;1.70;;;18.60;99.90;;;;;;5078418;28;20111;-68
2023/07/05 07:49:00;;;;;;;5.10;2.10;;;18.60;99.90;;;;;;5081512;28;20024;-68
2023/07/05 07:51:29;;;;;;;4.35;2.40;;;18.60;99.90;;;;;;5082449;28;20053;-67
2023/07/05 07:53:55;;;;;;;9.13;2.30;;;18.60;99.90;;;;;;5080054;28;20035;-67
2023/07/05 07:56:23;;;;;;;6.95;2.00;;;18.60;99.90;;;;;;5084862;28;20033;-67
2023/07/05 07:58:51;;;;;;;5.88;2.53;;;18.70;99.90;;;;;;5081199;28;20099;-69
2023/07/05 08:01:25;;;;;;;4.57;2.63;;;18.60;99.90;;;;;;5082539;28;20127;-67
2023/07/05 08:03:56;;;;;;;15.23;2.30;;;18.70;99.90;;;;;;5075894;28;20021;-69
2023/07/05 08:06:30;;;;;;;5.95;2.22;;;18.70;99.90;;;;;;5083824;28;20028;-69
2023/07/05 08:08:56;;;;;;;5.07;1.83;;;18.70;99.90;;;;;;5093957;28;20040;-69
2023/07/05 08:11:22;;;;;;;4.10;2.10;;;18.60;99.90;;;;;;5082062;28;20032;-69
2023/07/05 08:13:48;;;;;;;6.78;2.15;;;18.60;99.90;;;;;;5086632;28;20495;-68
2023/07/05 08:16:15;;;;;;;4.13;1.88;;;18.60;99.90;;;;;;5073610;28;20054;-69
2023/07/05 08:18:40;;;;;;;7.30;2.22;;;18.60;99.90;;;;;;5067253;28;20078;-68
2023/07/05 08:21:06;;;;;;;5.82;2.10;;;18.80;99.90;;;;;;5089473;28;20060;-68
2023/07/05 08:23:32;;;;;;;12.50;2.22;;;19.00;99.90;;;;;;5093379;28;20079;-69
2023/07/05 08:26:01;;;;;;;7.15;2.00;;;19.10;99.90;;;;;;5091033;28;20077;-68
2023/07/05 08:28:27;;;;;;;6.47;1.85;;;19.10;99.90;;;;;;5089794;28;20071;-68
2023/07/05 08:30:55;;;;;;;8.23;2.17;;;19.40;99.90;;;;;;5095432;28;20070;-69
2023/07/05 08:33:22;;;;;;;4.72;2.42;;;19.30;99.90;;;;;;5089870;28;20029;-67
2023/07/05 08:35:49;;;;;;;7.50;2.05;;;19.40;99.90;;;;;;5101354;28;20020;-67
2023/07/05 08:38:18;;;;;;;7.30;2.80;;;19.30;99.90;;;;;;5095735;28;20089;-68
2023/07/05 08:40:50;;;;;;;11.48;2.92;;;19.20;99.90;;;;;;5101041;28;20027;-69
2023/07/05 08:43:29;;;;;;;5.68;2.58;;;19.10;99.90;;;;;;5088862;28;20020;-69
2023/07/05 08:46:03;;;;;;;11.40;3.08;;;19.10;99.90;;;;;;5093994;28;20559;-70
2023/07/05 08:48:32;;;;;;;7.35;2.40;;;19.10;99.90;;;;;;5095626;28;20031;-68
2023/07/05 08:50:59;;;;;;;6.10;2.22;;;19.10;99.90;;;;;;5099128;28;20073;-68
2023/07/05 08:53:25;;;;;;;10.48;2.35;;;19.10;99.90;;;;;;5098593;28;20023;-68
2023/07/05 08:56:06;;;;;;;11.68;2.58;;;19.10;99.90;;;;;;5097657;28;20030;-69
2023/07/05 08:58:45;;;;;;;15.10;3.13;;;19.20;99.90;;;;;;5091973;28;20032;-69
2023/07/05 09:01:23;;;;;;;10.30;2.70;;;19.30;99.90;;;;;;5093794;28;20487;-69
2023/07/05 09:03:49;;;;;;;9.98;2.40;;;19.60;99.90;;;;;;5089260;28;21056;-69
2023/07/05 09:07:00;;;;;;;7.95;2.00;;;19.70;99.90;;;;;;5094622;28;20030;-69
2023/07/05 09:09:45;;;;;;;3.75;2.10;;;19.60;99.90;;;;;;5048198;28;20028;-72
2023/07/05 09:12:38;;;;;;;9.98;3.17;;;19.50;99.90;;;;;;5044873;28;20033;-70
2023/07/05 09:15:23;;;;;;;6.45;2.03;;;19.50;99.90;;;;;;5049950;28;20038;-69
2023/07/05 09:17:54;;;;;;;6.15;2.10;;;19.40;99.90;;;;;;5095762;28;20584;-70
2023/07/05 09:20:31;;;;;;;5.43;1.88;;;19.50;99.90;;;;;;5100717;28;20047;-70
2023/07/05 09:23:01;;;;;;;9.02;2.35;;;19.60;99.90;;;;;;5084767;28;20030;-70
2023/07/05 09:25:30;;;;;;;11.85;2.20;;;19.80;99.90;;;;;;5099723;28;20404;-70
2023/07/05 09:28:22;;;;;;;7.55;2.28;;;19.80;99.90;;;;;;5089242;28;20028;-69
2023/07/05 09:30:48;;;;;;;7.25;1.88;;;19.80;99.90;;;;;;5098739;28;20115;-69
2023/07/05 09:33:24;;;;;;;12.02;2.67;;;19.80;99.90;;;;;;5097431;28;20099;-68
2023/07/05 09:35:51;;;;;;;6.40;2.00;;;20.00;99.90;;;;;;5101279;28;20032;-69
2023/07/05 09:38:28;;;;;;;5.90;1.95;;;20.20;99.90;;;;;;5087040;28;20031;-69
2023/07/05 09:41:21;;;;;;;8.38;2.53;;;20.30;99.90;;;;;;5093880;28;20036;-70
2023/07/05 09:43:46;;;;;;;7.10;2.42;;;20.50;99.90;;;;;;5093868;28;20016;-69
2023/07/05 09:46:26;;;;;;;5.97;1.73;;;20.70;99.90;;;;;;5099281;28;20364;-68
2023/07/05 09:48:54;;;;;;;4.28;1.98;;;20.90;99.90;;;;;;5092064;28;20024;-69
2023/07/05 09:51:22;;;;;;;7.32;2.00;;;20.90;99.90;;;;;;5099578;28;20084;-70
2023/07/05 09:54:07;;;;;;;8.15;1.92;;;20.90;99.90;;;;;;5098621;28;20016;-68
2023/07/05 09:56:54;;;;;;;5.57;1.80;;;20.90;99.90;;;;;;5100480;28;20019;-69
2023/07/05 09:59:21;;;;;;;4.78;1.98;;;21.00;99.90;;;;;;5100979;28;20131;-69
2023/07/05 10:02:12;;;;;;;8.85;1.90;;;21.10;99.90;;;;;;5101978;28;20077;-70
2023/07/05 10:04:49;;;;;;;7.95;2.17;;;21.00;99.90;;;;;;5094275;28;20052;-68
2023/07/05 10:07:23;;;;;;;8.43;2.00;;;20.90;99.90;;;;;;5099175;28;20233;-67
2023/07/05 10:10:10;;;;;;;7.70;2.13;;;20.70;99.90;;;;;;5101351;28;20066;-66
2023/07/05 10:12:39;;;;;;;5.20;1.65;;;20.60;99.90;;;;;;5104513;28;20015;-67
2023/07/05 10:15:22;;;;;;;8.82;1.90;;;20.50;99.90;;;;;;5097673;28;20052;-67
2023/07/05 10:17:51;;;;;;;6.95;2.20;;;20.50;99.90;;;;;;5094218;28;20503;-67
2023/07/05 10:20:23;;;;;;;4.38;2.10;;;20.50;99.90;;;;;;5098792;28;20039;-67
2023/07/05 10:23:02;;;;;;;;;;;20.70;99.90;;;;;;5100406;28;20533;-67
2023/07/05 10:25:35;;;;;;;7.10;1.98;;;21.10;99.90;;;;;;5102593;28;20368;-68
2023/07/05 10:28:03;;;;;;;5.97;1.73;;;21.10;99.90;;;;;;5095967;28;20031;-67
2023/07/05 10:30:29;;;;;;;4.55;1.52;;;21.10;99.90;;;;;;5093625;28;20059;-67
2023/07/05 10:33:29;;;;;;;10.55;2.22;;;21.30;99.90;;;;;;5101914;28;20443;-67
2023/07/05 10:36:09;;;;;;;4.30;1.73;;;21.10;99.90;;;;;;5061485;28;20591;-67
2023/07/05 10:38:46;;;;;;;5.50;1.70;;;21.00;99.90;;;;;;5101220;28;20036;-67
2023/07/05 10:41:25;;;;;;;8.43;1.83;;;21.10;99.90;;;;;;5100625;28;20072;-67
2023/07/05 10:44:15;;;;;;;6.95;1.63;;;21.20;99.90;;;;;;5102640;28;20024;-67
2023/07/05 10:46:42;;;;;;;12.07;2.63;;;21.30;99.90;;;;;;5091544;28;20480;-67
2023/07/05 10:49:14;;;;;;;6.97;1.55;;;21.50;99.90;;;;;;5099431;28;20032;-66
2023/07/05 10:51:45;;;;;;;5.80;1.88;;;21.80;99.90;;;;;;5100480;27;20028;-67
2023/07/05 10:54:25;;;;;;;9.45;2.33;;;21.60;99.90;;;;;;5096039;28;20390;-69
2023/07/05 10:56:52;;;;;;;6.15;2.20;;;21.90;99.90;;;;;;5095562;28;20034;-67
2023/07/05 10:59:43;;;;;;;5.88;2.00;;;21.70;99.90;;;;;;5092217;28;20043;-68
2023/07/05 11:02:34;;;;;;;3.95;1.75;;;21.90;99.90;;;;;;5097007;28;20567;-67
2023/07/05 11:05:00;;;;;;;3.30;1.50;;;21.90;99.90;;;;;;5092189;28;20027;-68
2023/07/05 11:07:31;;;;;;;4.20;1.55;;;22.10;99.90;;;;;;5088709;28;20208;-67
2023/07/05 11:09:58;;;;;;;7.47;1.80;;;22.50;99.90;;;;;;5096496;28;20036;-67
2023/07/05 11:12:28;;;;;;;4.25;1.92;;;22.60;99.90;;;;;;5098717;28;20472;-67
2023/07/05 11:14:55;;;;;;;6.80;1.58;;;22.60;99.90;;;;;;5098722;28;20031;-68
2023/07/05 11:17:27;;;;;;;4.90;1.48;;;22.90;99.90;;;;;;5086369;28;20103;-68
2023/07/05 11:19:53;;;;;;;4.25;1.55;;;23.00;99.90;;;;;;5099736;28;20035;-67
2023/07/05 11:22:39;;;;;;;4.25;1.88;;;23.10;99.90;;;;;;5091399;28;20085;-68
2023/07/05 11:25:11;;;;;;;3.72;1.95;;;23.20;99.90;;;;;;5099808;28;20058;-68
2023/07/05 11:27:56;;;;;;;4.00;1.42;;;23.40;99.90;;;;;;5093202;28;20024;-73
2023/07/05 11:30:44;;;;;;;6.72;1.67;;;23.60;99.90;;;;;;5095088;28;20036;-67
2023/07/05 11:33:10;;;;;;;5.32;1.58;;;23.70;99.90;;;;;;5084914;28;20017;-68
2023/07/05 11:35:48;;;;;;;5.63;1.30;;;23.70;99.90;;;;;;5097040;28;20031;-67
2023/07/05 11:38:35;;;;;;;6.45;1.40;;;24.00;99.90;;;;;;5097286;28;20063;-68
2023/07/05 11:41:06;;;;;;;6.72;1.55;;;24.00;99.90;;;;;;5087560;28;20168;-68
2023/07/05 11:43:43;;;;;;;5.63;1.55;;;23.90;99.90;;;;;;5092538;28;20345;-68
2023/07/05 11:46:37;;;;;;;6.45;1.70;;;24.00;99.90;;;;;;5098039;28;20028;-68
2023/07/05 11:49:24;;;;;;;7.80;1.75;;;24.20;99.90;;;;;;5088902;28;20071;-68
2023/07/05 11:52:08;;;;;;;3.92;1.50;;;24.30;99.90;;;;;;5098208;28;20038;-67
2023/07/05 11:54:43;;;;;;;4.75;1.40;;;24.30;99.90;;;;;;5102298;28;20016;-68
2023/07/05 11:57:12;;;;;;;5.88;1.60;;;24.20;99.90;;;;;;5099384;28;20035;-67
2023/07/05 12:00:02;;;;;;;7.13;1.63;;;24.10;99.90;;;;;;5093486;28;20039;-67
2023/07/05 12:02:57;;;;;;;3.28;1.40;;;24.30;99.90;;;;;;5090454;28;20040;-67
2023/07/05 12:05:26;;;;;;;5.68;1.40;;;24.30;99.90;;;;;;5093615;28;20123;-68
2023/07/05 12:08:24;;;;;;;5.22;1.90;;;24.50;99.90;;;;;;5094054;28;20036;-68
2023/07/05 12:10:58;;;;;;;4.53;1.52;;;24.70;99.90;;;;;;5099844;28;20038;-68
2023/07/05 12:13:26;;;;;;;6.88;2.22;;;24.90;99.90;;;;;;5097140;28;20380;-68
2023/07/05 12:15:55;;;;;;;5.13;1.77;;;25.20;99.90;;;;;;5094866;28;20020;-68
2023/07/05 12:18:21;;;;;;;5.38;2.20;;;25.20;99.90;;;;;;5093552;28;20601;-68
2023/07/05 12:20:54;;;;;;;6.45;1.85;;;25.00;99.90;;;;;;5094208;28;20499;-68
2023/07/05 12:23:23;;;;;;;5.05;2.25;;;24.60;99.90;;;;;;5091153;28;20022;-68
2023/07/05 12:25:54;;;;;;;4.40;1.80;;;24.20;99.90;;;;;;5097458;28;20027;-68
2023/07/05 12:28:28;;;;;;;7.65;2.28;;;24.00;99.90;;;;;;5097381;28;20109;-68
2023/07/05 12:30:58;;;;;;;6.72;1.83;;;24.00;99.90;;;;;;5099895;28;20047;-67
2023/07/05 12:33:29;;;;;;;6.65;2.03;;;23.90;99.90;;;;;;5099219;28;20486;-67
2023/07/05 12:36:10;;;;;;;6.57;2.10;;;24.00;99.90;;;;;;5100224;28;20019;-67
2023/07/05 12:38:37;;;;;;;5.13;1.90;;;24.40;99.90;;;;;;5095822;28;20092;-68
2023/07/05 12:41:04;;;;;;;4.80;2.35;;;24.50;99.90;;;;;;5094535;28;20036;-67
2023/07/05 12:43:32;;;;;;;5.25;2.25;;;24.80;99.90;;;;;;5098719;28;20079;-68
2023/07/05 12:46:22;;;;;;;5.85;2.00;;;25.10;99.90;;;;;;5094990;28;20061;-67
2023/07/05 12:48:51;;;;;;;4.80;1.80;;;24.80;99.90;;;;;;5094921;28;20023;-67
2023/07/05 12:51:26;;;;;;;6.43;2.35;;;25.20;99.90;;;;;;5090124;28;20387;-67
2023/07/05 12:54:03;;;;;;;6.80;2.35;;;25.30;99.90;;;;;;5095823;28;20016;-67
2023/07/05 12:56:39;;;;;;;4.07;1.75;;;25.10;99.90;;;;;;5094931;28;20080;-67
2023/07/05 12:59:12;;;;;;;3.78;1.98;;;24.70;99.90;;;;;;5097831;28;20506;-67
2023/07/05 13:01:40;;;;;;;3.58;1.50;;;24.70;99.60;;;;;;5088132;28;20024;-67